createdAt,value
2023-04-07T00:00:44.725Z,85.56
2023-04-07T00:02:46.999Z,88.01
2023-04-07T00:04:48.660Z,86.77
2023-04-07T00:06:50.305Z,86.50
2023-04-07T00:08:51.860Z,85.54
2023-04-07T00:10:53.431Z,86.93
2023-04-07T00:12:55.084Z,87.69
2023-04-07T00:14:56.682Z,86.95
2023-04-07T00:16:58.182Z,87.41
2023-04-07T00:18:59.651Z,88.17
2023-04-07T00:21:01.145Z,88.21
2023-04-07T00:23:02.782Z,87.24
2023-04-07T00:25:04.684Z,87.02
2023-04-07T00:27:06.262Z,87.81
2023-04-07T00:29:07.803Z,87.52
2023-04-07T00:31:09.449Z,88.71
2023-04-07T00:33:11.213Z,88.24
2023-04-07T00:35:12.746Z,87.25
2023-04-07T00:37:14.349Z,89.07
2023-04-07T00:39:15.803Z,89.79
2023-04-07T00:41:17.650Z,89.29
2023-04-07T00:43:19.652Z,87.92
2023-04-07T00:45:21.265Z,87.97
2023-04-07T00:47:22.843Z,87.27
2023-04-07T00:49:24.644Z,86.88
2023-04-07T00:51:26.948Z,86.75
2023-04-07T00:53:29.146Z,86.58
2023-04-07T00:55:30.995Z,86.35
2023-04-07T00:57:32.626Z,88.14
2023-04-07T00:59:34.654Z,88.35
2023-04-07T01:01:47.245Z,87.36
2023-04-07T01:03:57.687Z,89.61
2023-04-07T01:06:03.243Z,89.75
2023-04-07T01:08:20.767Z,92.48
2023-04-07T01:10:33.877Z,92.30
2023-04-07T01:13:23.902Z,91.54
2023-04-07T01:15:30.739Z,92.21
2023-04-07T01:17:36.388Z,90.70
2023-04-07T01:19:43.171Z,90.37
2023-04-07T01:21:49.384Z,90.82
2023-04-07T01:24:12.969Z,90.71
2023-04-07T01:26:21.906Z,90.37
2023-04-07T01:28:56.191Z,91.90
2023-04-07T01:30:59.885Z,92.26
2023-04-07T01:33:02.232Z,92.26
2023-04-07T01:35:06.364Z,91.51
2023-04-07T01:37:09.688Z,90.61
2023-04-07T01:39:13.149Z,90.49
2023-04-07T01:41:16.484Z,90.69
2023-04-07T01:43:18.549Z,90.61
2023-04-07T01:45:20.613Z,90.67
2023-04-07T01:47:23.434Z,91.18
2023-04-07T01:49:27.233Z,91.34
2023-04-07T01:51:31.036Z,91.30
2023-04-07T01:53:33.163Z,93.01
2023-04-07T01:55:35.226Z,92.79
2023-04-07T01:57:40.488Z,92.06
2023-04-07T01:59:48.119Z,93.75
2023-04-07T02:01:50.515Z,92.95
2023-04-07T02:04:20.128Z,92.94
2023-04-07T02:06:32.051Z,92.87
2023-04-07T02:08:36.892Z,93.27
2023-04-07T02:10:38.986Z,94.63
2023-04-07T02:12:42.573Z,94.49
2023-04-07T02:14:50.549Z,94.59
2023-04-07T02:16:53.705Z,95.54
2023-04-07T02:18:56.253Z,95.55
2023-04-07T02:20:59.278Z,96.16
2023-04-07T02:23:00.802Z,95.37
2023-04-07T02:25:02.388Z,94.45
2023-04-07T02:27:04.215Z,94.53
2023-04-07T02:29:06.116Z,95.17
2023-04-07T02:31:07.632Z,95.80
2023-04-07T02:33:09.204Z,95.27
2023-04-07T02:35:11.942Z,96.51
2023-04-07T02:37:13.400Z,96.25
2023-04-07T02:39:15.021Z,95.41
2023-04-07T02:41:16.642Z,94.54
2023-04-07T02:43:20.686Z,96.08
2023-04-07T02:45:22.345Z,95.64
2023-04-07T02:47:24.080Z,95.38
2023-04-07T02:49:25.617Z,96.24
2023-04-07T02:51:27.172Z,96.75
2023-04-07T02:53:28.759Z,96.14
2023-04-07T02:55:30.482Z,95.24
2023-04-07T02:57:31.981Z,95.55
2023-04-07T02:59:36.985Z,95.31
2023-04-07T03:01:40.335Z,95.02
2023-04-07T03:03:44.757Z,94.49
2023-04-07T03:05:50.907Z,94.22
2023-04-07T03:07:52.479Z,94.78
2023-04-07T03:09:53.999Z,95.18
2023-04-07T03:11:55.699Z,95.54
2023-04-07T03:13:57.612Z,95.75
2023-04-07T03:16:00.560Z,97.21
2023-04-07T03:18:07.596Z,98.01
2023-04-07T03:20:09.884Z,97.69
2023-04-07T03:22:12.655Z,97.49
2023-04-07T03:24:22.245Z,97.54
2023-04-07T03:26:23.779Z,98.07
2023-04-07T03:28:25.768Z,97.77
2023-04-07T03:30:27.428Z,97.18
2023-04-07T03:32:28.947Z,97.66
2023-04-07T03:34:31.453Z,96.11
2023-04-07T03:36:33.945Z,96.82
2023-04-07T03:38:38.774Z,96.98
2023-04-07T03:40:40.345Z,97.88
2023-04-07T03:42:41.893Z,99.04
2023-04-07T03:44:46.185Z,99.66
2023-04-07T03:46:50.435Z,98.71
2023-04-07T03:48:53.679Z,98.76
2023-04-07T03:50:56.641Z,98.75
2023-04-07T03:52:58.363Z,98.88
2023-04-07T03:55:03.340Z,98.10
2023-04-07T03:57:06.928Z,97.70
2023-04-07T03:59:13.243Z,98.19
2023-04-07T04:01:26.336Z,98.61
2023-04-07T04:03:29.349Z,98.01
2023-04-07T04:05:46.295Z,98.09
2023-04-07T04:07:53.146Z,96.98
2023-04-07T04:09:56.855Z,97.14
2023-04-07T04:11:58.639Z,98.38
2023-04-07T04:14:00.803Z,99.23
2023-04-07T04:16:02.973Z,98.29
2023-04-07T04:18:05.061Z,97.71
2023-04-07T04:20:08.152Z,97.37
2023-04-07T04:22:17.708Z,97.22
2023-04-07T04:24:26.145Z,96.94
2023-04-07T04:26:29.765Z,95.94
2023-04-07T04:28:36.761Z,96.91
2023-04-07T04:30:41.895Z,96.96
2023-04-07T04:32:44.542Z,98.44
2023-04-07T04:34:47.088Z,98.46
2023-04-07T04:36:50.557Z,98.02
2023-04-07T04:38:53.851Z,98.71
2023-04-07T04:40:56.508Z,97.96
2023-04-07T04:43:06.998Z,97.58
2023-04-07T04:45:11.065Z,98.55
2023-04-07T04:47:15.899Z,99.57
2023-04-07T04:49:18.906Z,100.00
2023-04-07T04:51:22.297Z,100.00
2023-04-07T04:53:29.111Z,100.00
2023-04-07T04:55:34.072Z,100.00
2023-04-07T04:57:36.116Z,99.77
2023-04-07T04:59:42.406Z,98.77
2023-04-07T05:01:44.187Z,99.35
2023-04-07T05:03:49.877Z,99.99
2023-04-07T05:05:58.780Z,100.00
2023-04-07T05:08:01.068Z,100.00
2023-04-07T05:10:08.935Z,99.89
2023-04-07T05:12:14.167Z,98.76
2023-04-07T05:14:21.744Z,98.59
2023-04-07T05:16:29.550Z,99.17
2023-04-07T05:18:31.404Z,98.77
2023-04-07T05:20:33.916Z,98.90
2023-04-07T05:22:36.340Z,98.97
2023-04-07T05:24:39.363Z,98.42
2023-04-07T05:26:40.962Z,98.36
2023-04-07T05:28:43.489Z,97.96
2023-04-07T05:30:51.021Z,98.56
2023-04-07T05:32:53.631Z,99.86
2023-04-07T05:35:15.746Z,100.00
2023-04-07T05:37:24.707Z,98.63
2023-04-07T05:39:27.030Z,98.23
2023-04-07T05:41:30.541Z,98.98
2023-04-07T05:43:32.230Z,97.89
2023-04-07T05:45:34.004Z,98.20
2023-04-07T05:47:35.936Z,97.94
2023-04-07T05:49:37.734Z,97.89
2023-04-07T05:51:42.710Z,97.26
2023-04-07T05:53:47.508Z,97.11
2023-04-07T05:55:49.628Z,97.38
2023-04-07T05:58:00.182Z,96.89
2023-04-07T06:00:05.370Z,96.94
2023-04-07T06:02:16.030Z,96.23
2023-04-07T06:04:20.512Z,96.73
2023-04-07T06:06:24.650Z,98.74
2023-04-07T06:08:26.160Z,99.54
2023-04-07T06:10:27.864Z,99.89
2023-04-07T06:12:29.380Z,98.80
2023-04-07T06:14:31.315Z,98.02
2023-04-07T06:16:32.830Z,96.92
2023-04-07T06:18:34.503Z,98.22
2023-04-07T06:20:36.257Z,98.78
2023-04-07T06:22:40.135Z,98.77
2023-04-07T06:24:42.717Z,98.11
2023-04-07T06:26:44.956Z,97.91
2023-04-07T06:28:46.660Z,98.56
2023-04-07T06:30:49.173Z,98.82
2023-04-07T06:32:51.364Z,98.61
2023-04-07T06:34:52.963Z,97.48
2023-04-07T06:36:57.997Z,96.85
2023-04-07T06:39:00.290Z,97.32
2023-04-07T06:41:01.806Z,97.56
2023-04-07T06:43:04.052Z,97.38
2023-04-07T06:45:14.700Z,97.19
2023-04-07T06:47:16.713Z,97.53
2023-04-07T06:49:18.767Z,97.49
2023-04-07T06:51:20.272Z,97.33
2023-04-07T06:53:21.822Z,97.10
2023-04-07T06:55:23.409Z,97.56
2023-04-07T06:57:25.501Z,97.92
2023-04-07T06:59:27.009Z,97.98
2023-04-07T07:01:28.730Z,97.29
2023-04-07T07:03:31.619Z,97.58
2023-04-07T07:05:33.251Z,98.38
2023-04-07T07:07:35.076Z,97.75
2023-04-07T07:09:36.720Z,97.82
2023-04-07T07:11:38.373Z,98.08
2023-04-07T07:13:39.852Z,98.13
2023-04-07T07:15:41.409Z,98.43
2023-04-07T07:17:43.003Z,98.45
2023-04-07T07:19:44.461Z,97.82
2023-04-07T07:21:45.977Z,97.77
2023-04-07T07:23:47.645Z,96.92
2023-04-07T07:25:49.204Z,97.96
2023-04-07T07:27:53.314Z,98.17
2023-04-07T07:29:54.884Z,99.14
2023-04-07T07:31:56.499Z,98.41
2023-04-07T07:33:58.027Z,98.23
2023-04-07T07:35:59.639Z,97.84
2023-04-07T07:38:01.348Z,98.13
2023-04-07T07:40:02.992Z,97.60
2023-04-07T07:42:04.568Z,97.29
2023-04-07T07:44:06.156Z,96.92
2023-04-07T07:46:07.777Z,97.03
2023-04-07T07:48:09.247Z,96.69
2023-04-07T07:50:11.158Z,97.13
2023-04-07T07:52:12.670Z,97.29
2023-04-07T07:54:14.178Z,98.45
2023-04-07T07:56:15.924Z,98.38
2023-04-07T07:58:17.478Z,99.00
2023-04-07T08:00:19.150Z,97.75
2023-04-07T08:02:20.709Z,98.41
2023-04-07T08:04:23.393Z,97.37
2023-04-07T08:06:25.220Z,96.50
2023-04-07T08:08:26.814Z,97.18
2023-04-07T08:10:28.594Z,96.89
2023-04-07T08:12:30.130Z,96.48
2023-04-07T08:14:31.638Z,96.40
2023-04-07T08:16:33.258Z,95.80
2023-04-07T08:18:34.880Z,95.61
2023-04-07T08:20:36.723Z,96.34
2023-04-07T08:22:38.196Z,95.39
2023-04-07T08:24:39.741Z,95.15
2023-04-07T08:26:41.262Z,95.40
2023-04-07T08:28:42.780Z,96.82
2023-04-07T08:30:44.336Z,97.69
2023-04-07T08:32:45.974Z,96.92
2023-04-07T08:34:47.505Z,96.96
2023-04-07T08:36:49.100Z,96.34
2023-04-07T08:38:50.796Z,97.77
2023-04-07T08:41:00.696Z,98.38
2023-04-07T08:43:09.509Z,100.00
2023-04-07T08:45:12.688Z,99.90
2023-04-07T08:47:17.223Z,100.00
2023-04-07T08:49:19.849Z,99.23
2023-04-07T08:51:29.692Z,99.14
2023-04-07T08:53:41.432Z,98.01
2023-04-07T08:55:42.994Z,98.71
2023-04-07T08:57:44.710Z,98.66
2023-04-07T08:59:48.999Z,97.45
2023-04-07T09:01:51.717Z,96.07
2023-04-07T09:03:53.346Z,95.89
2023-04-07T09:05:56.663Z,95.52
2023-04-07T09:07:58.136Z,95.02
2023-04-07T09:10:00.243Z,95.77
2023-04-07T09:12:01.881Z,96.56
2023-04-07T09:14:03.582Z,95.49
2023-04-07T09:16:05.470Z,95.71
2023-04-07T09:18:07.231Z,96.11
2023-04-07T09:20:09.363Z,96.53
2023-04-07T09:22:14.122Z,96.39
2023-04-07T09:24:23.866Z,96.18
2023-04-07T09:26:28.193Z,95.50
2023-04-07T09:28:42.264Z,96.34
2023-04-07T09:30:54.265Z,96.32
2023-04-07T09:32:56.535Z,96.71
2023-04-07T09:34:59.280Z,96.67
2023-04-07T09:37:01.266Z,96.13
2023-04-07T09:39:08.580Z,96.24
2023-04-07T09:41:16.277Z,96.85
2023-04-07T09:43:19.412Z,95.38
2023-04-07T09:45:33.835Z,96.31
2023-04-07T09:47:38.187Z,96.63
2023-04-07T09:49:53.973Z,94.86
2023-04-07T09:52:11.040Z,94.82
2023-04-07T09:54:12.840Z,95.11
2023-04-07T09:56:19.834Z,94.79
2023-04-07T09:58:21.800Z,96.00
2023-04-07T10:00:24.912Z,94.48
2023-04-07T10:02:26.814Z,94.20
2023-04-07T10:04:31.359Z,93.94
2023-04-07T10:06:33.159Z,94.78
2023-04-07T10:08:37.449Z,93.91
2023-04-07T10:10:42.770Z,93.52
2023-04-07T10:12:45.512Z,94.67
2023-04-07T10:14:48.315Z,95.18
2023-04-07T10:16:51.802Z,93.05
2023-04-07T10:18:53.860Z,93.91
2023-04-07T10:20:56.200Z,94.01
2023-04-07T10:23:13.110Z,93.58
2023-04-07T10:25:18.249Z,94.61
2023-04-07T10:27:24.169Z,95.30
2023-04-07T10:29:27.193Z,94.98
2023-04-07T10:31:29.297Z,94.18
2023-04-07T10:33:51.757Z,93.99
2023-04-07T10:36:07.177Z,94.86
2023-04-07T10:38:10.715Z,96.29
2023-04-07T10:40:18.495Z,95.84
2023-04-07T10:42:41.229Z,93.33
2023-04-07T10:44:42.870Z,93.63
2023-04-07T10:46:48.535Z,92.64
2023-04-07T10:49:10.094Z,92.69
2023-04-07T10:51:15.133Z,91.87
2023-04-07T10:53:17.468Z,91.17
2023-04-07T10:55:30.211Z,91.95
2023-04-07T10:57:31.772Z,94.43
2023-04-07T10:59:34.300Z,95.17
2023-04-07T11:01:36.251Z,94.72
2023-04-07T11:03:40.385Z,94.32
2023-04-07T11:05:42.904Z,93.08
2023-04-07T11:07:45.998Z,91.71
2023-04-07T11:09:47.500Z,92.32
2023-04-07T11:11:49.076Z,92.19
2023-04-07T11:13:51.561Z,92.90
2023-04-07T11:15:53.660Z,91.05
2023-04-07T11:18:08.946Z,92.11
2023-04-07T11:20:10.889Z,93.55
2023-04-07T11:22:29.405Z,91.90
2023-04-07T11:24:39.236Z,92.39
2023-04-07T11:26:41.556Z,92.75
2023-04-07T11:28:54.122Z,94.43
2023-04-07T11:30:58.077Z,92.84
2023-04-07T11:33:00.227Z,93.44
2023-04-07T11:35:06.755Z,94.13
2023-04-07T11:37:25.266Z,94.79
2023-04-07T11:39:33.433Z,94.46
2023-04-07T11:41:46.659Z,93.04
2023-04-07T11:43:50.816Z,93.31
2023-04-07T11:46:12.028Z,93.61
2023-04-07T11:48:29.443Z,95.16
2023-04-07T11:50:41.370Z,94.90
2023-04-07T11:52:49.494Z,97.31
2023-04-07T11:54:51.064Z,98.53
2023-04-07T11:56:55.421Z,97.13
2023-04-07T11:58:58.051Z,96.16
2023-04-07T12:01:03.470Z,95.25
2023-04-07T12:03:16.365Z,93.49
2023-04-07T12:05:18.147Z,92.28
2023-04-07T12:07:20.762Z,93.25
2023-04-07T12:09:30.868Z,91.50
2023-04-07T12:11:33.048Z,90.29
2023-04-07T12:13:36.045Z,90.28
2023-04-07T12:15:37.884Z,91.51
2023-04-07T12:17:45.784Z,90.18
2023-04-07T12:19:47.322Z,90.83
2023-04-07T12:21:48.867Z,90.22
2023-04-07T12:23:50.636Z,89.24
2023-04-07T12:25:52.424Z,88.61
2023-04-07T12:27:54.067Z,87.65
2023-04-07T12:29:55.579Z,90.97
2023-04-07T12:31:57.460Z,90.85
2023-04-07T12:33:59.397Z,90.49
2023-04-07T12:36:00.992Z,86.87
2023-04-07T12:38:02.953Z,85.75
2023-04-07T12:40:04.814Z,83.96
2023-04-07T12:42:07.518Z,84.89
2023-04-07T12:44:09.592Z,83.57
2023-04-07T12:46:11.554Z,84.84
2023-04-07T12:48:13.425Z,85.14
2023-04-07T12:50:14.984Z,87.60
2023-04-07T12:52:16.769Z,85.10
2023-04-07T12:54:18.654Z,86.01
2023-04-07T12:56:22.278Z,86.98
2023-04-07T12:58:25.289Z,80.31
2023-04-07T13:00:27.126Z,78.47
2023-04-07T13:02:28.757Z,78.04
2023-04-07T13:04:31.349Z,77.55
2023-04-07T13:06:33.462Z,77.06
2023-04-07T13:08:34.978Z,74.39
2023-04-07T13:10:36.825Z,75.15
2023-04-07T13:12:39.808Z,78.64
2023-04-07T13:14:52.829Z,81.15
2023-04-07T13:16:59.096Z,79.26
2023-04-07T13:19:00.761Z,78.86
2023-04-07T13:21:26.336Z,80.79
2023-04-07T13:23:26.363Z,79.12
2023-04-07T13:25:28.129Z,79.05
2023-04-07T13:27:29.770Z,77.07
2023-04-07T13:29:32.018Z,76.42
2023-04-07T13:31:33.622Z,77.32
2023-04-07T13:33:35.392Z,77.07
2023-04-07T13:35:37.125Z,76.49
2023-04-07T13:37:38.697Z,76.88
2023-04-07T13:39:40.362Z,76.49
2023-04-07T13:41:41.987Z,77.00
2023-04-07T13:43:43.564Z,77.23
2023-04-07T13:45:45.451Z,76.29
2023-04-07T13:47:47.453Z,78.81
2023-04-07T13:49:49.325Z,80.34
2023-04-07T13:51:51.278Z,77.60
2023-04-07T13:53:52.888Z,78.22
2023-04-07T13:55:54.478Z,79.80
2023-04-07T13:57:56.065Z,79.58
2023-04-07T13:59:57.827Z,78.83
2023-04-07T14:01:59.638Z,78.10
2023-04-07T14:04:02.758Z,75.96
2023-04-07T14:06:04.455Z,77.79
2023-04-07T14:08:06.050Z,75.26
2023-04-07T14:10:09.477Z,75.65
2023-04-07T14:12:12.416Z,74.81
2023-04-07T14:14:14.102Z,77.02
2023-04-07T14:16:16.636Z,78.97
2023-04-07T14:18:18.316Z,79.74
2023-04-07T14:20:19.960Z,79.60
2023-04-07T14:22:21.597Z,78.02
2023-04-07T14:24:23.191Z,77.58
2023-04-07T14:26:24.818Z,77.05
2023-04-07T14:28:27.787Z,77.04
2023-04-07T14:30:30.808Z,78.92
2023-04-07T14:32:34.143Z,78.87
2023-04-07T14:34:35.762Z,78.54
2023-04-07T14:36:37.592Z,78.16
2023-04-07T14:38:39.352Z,76.93
2023-04-07T14:40:41.444Z,74.70
2023-04-07T14:42:43.029Z,74.64
2023-04-07T14:44:44.668Z,74.61
2023-04-07T14:46:46.574Z,73.51
2023-04-07T14:48:48.205Z,74.09
2023-04-07T14:50:56.408Z,74.77
2023-04-07T14:53:04.568Z,75.56
2023-04-07T14:55:06.820Z,77.25
2023-04-07T14:57:08.590Z,77.14
2023-04-07T14:59:10.246Z,77.89
2023-04-07T15:01:11.831Z,79.18
2023-04-07T15:03:14.063Z,81.32
2023-04-07T15:05:15.936Z,82.99
2023-04-07T15:07:17.756Z,81.83
2023-04-07T15:09:19.366Z,80.37
2023-04-07T15:11:21.742Z,81.54
2023-04-07T15:13:23.534Z,78.98
2023-04-07T15:15:25.628Z,78.71
2023-04-07T15:17:40.218Z,77.86
2023-04-07T15:19:45.500Z,77.17
2023-04-07T15:21:47.216Z,77.31
2023-04-07T15:23:49.022Z,77.71
2023-04-07T15:25:55.945Z,77.82
2023-04-07T15:27:57.619Z,78.24
2023-04-07T15:29:59.297Z,79.28
2023-04-07T15:32:01.156Z,80.44
2023-04-07T15:34:02.839Z,80.71
2023-04-07T15:36:05.910Z,80.43
2023-04-07T15:38:07.570Z,81.02
2023-04-07T15:40:09.475Z,81.61
2023-04-07T15:42:12.439Z,80.69
2023-04-07T15:44:18.648Z,80.21
2023-04-07T15:46:20.315Z,79.68
2023-04-07T15:48:21.935Z,81.00
2023-04-07T15:50:24.825Z,82.16
2023-04-07T15:52:27.586Z,81.52
2023-04-07T15:54:30.184Z,81.30
2023-04-07T15:56:31.985Z,81.30
2023-04-07T15:58:33.633Z,80.51
2023-04-07T16:00:35.757Z,80.51
2023-04-07T16:02:38.214Z,78.78
2023-04-07T16:04:41.435Z,77.67
2023-04-07T16:06:43.021Z,79.57
2023-04-07T16:08:44.685Z,80.51
2023-04-07T16:10:46.401Z,81.17
2023-04-07T16:12:48.132Z,81.85
2023-04-07T16:14:50.280Z,82.63
2023-04-07T16:16:54.370Z,82.59
2023-04-07T16:18:56.015Z,82.57
2023-04-07T16:20:57.649Z,83.27
2023-04-07T16:22:59.261Z,82.23
2023-04-07T16:25:01.174Z,83.26
2023-04-07T16:27:04.297Z,82.86
2023-04-07T16:29:06.179Z,82.90
2023-04-07T16:31:08.562Z,83.97
2023-04-07T16:33:10.514Z,84.25
2023-04-07T16:35:14.769Z,83.60
2023-04-07T16:37:16.430Z,84.64
2023-04-07T16:39:18.236Z,84.90
2023-04-07T16:41:20.234Z,85.17
2023-04-07T16:43:21.851Z,85.14
2023-04-07T16:45:23.610Z,84.86
2023-04-07T16:47:26.100Z,85.45
2023-04-07T16:49:27.612Z,85.86
2023-04-07T16:51:29.608Z,86.09
2023-04-07T16:53:31.225Z,86.92
2023-04-07T16:55:36.107Z,86.97
2023-04-07T16:57:38.005Z,87.52
2023-04-07T16:59:40.396Z,87.37
2023-04-07T17:01:43.132Z,87.67
2023-04-07T17:03:48.234Z,87.75
2023-04-07T17:05:50.898Z,87.82
2023-04-07T17:07:52.703Z,87.68
2023-04-07T17:09:54.261Z,87.54
2023-04-07T17:11:56.369Z,86.35
2023-04-07T17:13:57.987Z,86.10
2023-04-07T17:16:02.863Z,86.77
2023-04-07T17:18:04.527Z,87.31
2023-04-07T17:20:06.745Z,87.69
2023-04-07T17:22:08.385Z,87.32
2023-04-07T17:24:10.164Z,86.49
2023-04-07T17:26:11.756Z,85.71
2023-04-07T17:28:13.379Z,86.24
2023-04-07T17:30:15.129Z,86.33
2023-04-07T17:32:16.697Z,85.20
2023-04-07T17:34:18.370Z,85.03
2023-04-07T17:36:20.165Z,85.78
2023-04-07T17:38:21.771Z,86.09
2023-04-07T17:40:23.466Z,87.26
2023-04-07T17:42:25.147Z,87.63
2023-04-07T17:44:27.141Z,88.08
2023-04-07T17:46:29.336Z,88.02
2023-04-07T17:48:32.105Z,86.87
2023-04-07T17:50:34.063Z,86.82
2023-04-07T17:52:36.096Z,86.92
2023-04-07T17:54:38.124Z,86.13
2023-04-07T17:56:39.896Z,85.77
2023-04-07T17:58:41.710Z,86.14
2023-04-07T18:00:43.390Z,86.27
2023-04-07T18:02:45.542Z,85.80
2023-04-07T18:04:47.641Z,86.07
2023-04-07T18:06:49.934Z,86.57
2023-04-07T18:08:51.590Z,86.76
2023-04-07T18:10:53.203Z,86.66
2023-04-07T18:12:54.991Z,87.04
2023-04-07T18:14:56.629Z,87.36
2023-04-07T18:16:58.352Z,87.74
2023-04-07T18:19:00.691Z,88.64
2023-04-07T18:21:02.577Z,89.09
2023-04-07T18:23:05.288Z,90.17
2023-04-07T18:25:07.222Z,90.28
2023-04-07T18:27:10.083Z,89.40
2023-04-07T18:29:14.536Z,89.36
2023-04-07T18:31:16.297Z,89.85
2023-04-07T18:33:17.994Z,90.49
2023-04-07T18:35:19.669Z,90.94
2023-04-07T18:37:22.075Z,90.64
2023-04-07T18:39:27.739Z,90.27
2023-04-07T18:41:29.491Z,90.17
2023-04-07T18:43:31.279Z,90.99
2023-04-07T18:45:36.726Z,90.56
2023-04-07T18:47:38.914Z,90.26
2023-04-07T18:49:40.632Z,89.58
2023-04-07T18:51:44.479Z,88.59
2023-04-07T18:53:46.251Z,88.17
2023-04-07T18:55:49.109Z,88.16
2023-04-07T18:57:50.680Z,88.22
2023-04-07T18:59:52.784Z,89.38
2023-04-07T19:01:55.499Z,90.99
2023-04-07T19:03:57.586Z,92.02
2023-04-07T19:06:02.842Z,91.74
2023-04-07T19:08:05.450Z,91.08
2023-04-07T19:10:07.752Z,90.85
2023-04-07T19:12:09.404Z,90.42
2023-04-07T19:14:11.180Z,89.52
2023-04-07T19:16:12.794Z,89.66
2023-04-07T19:18:14.520Z,89.67
2023-04-07T19:20:16.193Z,89.41
2023-04-07T19:22:17.877Z,89.65
2023-04-07T19:24:19.603Z,89.78
2023-04-07T19:26:21.641Z,89.96
2023-04-07T19:28:23.290Z,90.59
2023-04-07T19:30:24.896Z,92.61
2023-04-07T19:32:27.249Z,92.91
2023-04-07T19:34:28.954Z,93.38
2023-04-07T19:36:31.097Z,93.88
2023-04-07T19:38:32.736Z,93.60
2023-04-07T19:40:35.986Z,93.55
2023-04-07T19:42:39.327Z,94.41
2023-04-07T19:44:41.416Z,94.74
2023-04-07T19:46:43.054Z,94.51
2023-04-07T19:49:03.368Z,94.87
2023-04-07T19:51:07.101Z,94.39
2023-04-07T19:53:15.719Z,94.11
2023-04-07T19:55:17.288Z,94.08
2023-04-07T19:57:18.776Z,93.54
2023-04-07T19:59:20.585Z,93.93
2023-04-07T20:01:22.176Z,93.84
2023-04-07T20:03:24.001Z,94.72
2023-04-07T20:05:26.064Z,94.18
2023-04-07T20:07:27.685Z,93.30
2023-04-07T20:09:29.274Z,93.82
2023-04-07T20:11:30.726Z,94.19
2023-04-07T20:13:34.812Z,94.28
2023-04-07T20:15:36.687Z,94.14
2023-04-07T20:17:38.319Z,94.76
2023-04-07T20:19:41.084Z,94.85
2023-04-07T20:21:42.658Z,94.74
2023-04-07T20:23:44.181Z,96.02
2023-04-07T20:25:45.684Z,96.40
2023-04-07T20:27:49.054Z,96.83
2023-04-07T20:29:51.582Z,96.56
2023-04-07T20:31:53.677Z,96.11
2023-04-07T20:33:55.245Z,95.40
2023-04-07T20:35:56.810Z,94.37
2023-04-07T20:37:59.989Z,94.52
2023-04-07T20:40:01.574Z,93.94
2023-04-07T20:42:03.403Z,92.92
2023-04-07T20:44:05.433Z,92.61
2023-04-07T20:46:07.276Z,92.61
2023-04-07T20:48:08.811Z,92.85
2023-04-07T20:50:10.429Z,92.74
2023-04-07T20:52:12.377Z,92.37
2023-04-07T20:54:13.891Z,91.68
2023-04-07T20:56:15.484Z,91.48
2023-04-07T20:58:18.358Z,92.36
2023-04-07T21:00:20.375Z,92.93
2023-04-07T21:02:21.992Z,93.33
2023-04-07T21:04:24.444Z,92.88
2023-04-07T21:06:26.433Z,93.25
2023-04-07T21:08:27.998Z,92.30
2023-04-07T21:10:29.543Z,92.18
2023-04-07T21:12:31.183Z,91.65
2023-04-07T21:14:32.822Z,91.33
2023-04-07T21:16:34.356Z,89.67
2023-04-07T21:18:36.624Z,89.12
2023-04-07T21:20:38.188Z,89.89
2023-04-07T21:22:39.748Z,91.17
2023-04-07T21:24:41.392Z,92.93
2023-04-07T21:26:42.914Z,92.41
2023-04-07T21:28:44.403Z,91.06
2023-04-07T21:30:46.145Z,89.60
2023-04-07T21:32:47.778Z,89.07
2023-04-07T21:34:52.496Z,89.64
2023-04-07T21:36:53.974Z,91.69
2023-04-07T21:38:55.504Z,92.16
2023-04-07T21:40:57.486Z,91.81
2023-04-07T21:42:59.040Z,91.54
2023-04-07T21:45:00.690Z,91.59
2023-04-07T21:47:02.417Z,92.79
2023-04-07T21:49:04.506Z,92.79
2023-04-07T21:51:06.344Z,91.79
2023-04-07T21:53:09.373Z,91.98
2023-04-07T21:55:11.232Z,90.74
2023-04-07T21:57:13.433Z,89.87
2023-04-07T21:59:17.158Z,88.59
2023-04-07T22:01:18.852Z,88.88
2023-04-07T22:03:20.511Z,88.80
2023-04-07T22:05:22.164Z,89.74
2023-04-07T22:07:24.333Z,90.46
2023-04-07T22:09:26.300Z,90.42
2023-04-07T22:11:27.862Z,89.35
2023-04-07T22:13:29.417Z,88.20
2023-04-07T22:15:31.024Z,90.28
2023-04-07T22:17:32.565Z,90.53
2023-04-07T22:19:34.105Z,89.99
2023-04-07T22:21:35.863Z,91.34
2023-04-07T22:23:37.630Z,91.73
2023-04-07T22:25:39.244Z,91.23
2023-04-07T22:27:40.752Z,90.60
2023-04-07T22:29:42.226Z,91.81
2023-04-07T22:31:43.755Z,90.29
2023-04-07T22:33:45.328Z,90.11
2023-04-07T22:35:46.922Z,91.62
2023-04-07T22:37:48.508Z,91.03
2023-04-07T22:39:50.272Z,89.94
2023-04-07T22:41:51.788Z,90.59
2023-04-07T22:43:53.323Z,91.33
2023-04-07T22:45:54.816Z,91.12
2023-04-07T22:47:56.365Z,90.56
2023-04-07T22:49:58.168Z,91.00
2023-04-07T22:51:59.960Z,91.11
2023-04-07T22:54:01.438Z,92.37
2023-04-07T22:56:03.215Z,91.83
2023-04-07T22:58:04.705Z,90.51
2023-04-07T23:00:07.038Z,92.12
2023-04-07T23:02:08.698Z,92.06
2023-04-07T23:04:10.750Z,92.15
2023-04-07T23:06:12.221Z,91.17
2023-04-07T23:08:13.929Z,90.55
2023-04-07T23:10:15.562Z,90.00
2023-04-07T23:12:17.058Z,90.21
2023-04-07T23:14:18.685Z,89.50
2023-04-07T23:16:20.399Z,91.10
2023-04-07T23:18:21.925Z,91.23
2023-04-07T23:20:23.443Z,91.96
2023-04-07T23:22:24.987Z,92.59
2023-04-07T23:24:26.486Z,92.81
2023-04-07T23:26:27.988Z,92.23
2023-04-07T23:28:29.522Z,92.60
2023-04-07T23:30:31.140Z,91.73
2023-04-07T23:32:32.660Z,91.47
2023-04-07T23:34:34.185Z,90.46
2023-04-07T23:36:35.737Z,91.24
2023-04-07T23:38:39.380Z,92.27
2023-04-07T23:40:41.320Z,92.47
2023-04-07T23:42:42.856Z,92.86
2023-04-07T23:44:44.584Z,92.71
2023-04-07T23:46:46.071Z,91.74
2023-04-07T23:48:47.620Z,91.90
2023-04-07T23:50:50.557Z,92.50
2023-04-07T23:52:51.980Z,92.15
2023-04-07T23:54:53.688Z,92.25
2023-04-07T23:56:55.196Z,91.69
2023-04-07T23:58:56.672Z,91.87
